Flight Track Log - Related Links

Times and Time Zones

All times are in EDT time to prevent confusion due to time zone crossing. See the THY98 flight status page for this flight to view local times or setup timezone preferences in your user account.


Time Position Orientation Groundspeed Altitude Reporting Facility
EDT Latitude Longitude Course Direction KTS MPH feet Rate Location/Type
Sat 04:30:00 PM 40.2458 29.4246 148° Southeast  Level Estimated
Sat 04:31:00 PM 40.1541 29.4991 148° Southeast  Level Estimated
Sat 04:32:00 PM 40.0625 29.5734 148° Southeast  Level Estimated
Sat 04:33:00 PM 39.9708 29.6476 148° Southeast  Level Estimated
Sat 04:34:00 PM 39.8790 29.7215 148° Southeast  Level Estimated
Sat 04:35:00 PM 39.7872 29.7952 148° Southeast  Level Estimated
Sat 04:36:00 PM 39.6954 29.8687 148° Southeast  Level Estimated
Sat 04:37:00 PM 39.6035 29.9420 148° Southeast  Level Estimated
Sat 04:38:00 PM 39.5116 30.0152 148° Southeast  Level Estimated
Sat 04:39:00 PM 39.4196 30.0881 149° Southeast  Level Estimated
Sat 04:40:00 PM 39.3275 30.1609 149° Southeast  Level Estimated
Sat 04:41:00 PM 39.2355 30.2334 149° Southeast  Level Estimated
Sat 04:42:00 PM 39.1433 30.3058 149° Southeast  Level Estimated
Sat 04:43:00 PM 39.0512 30.3780 149° Southeast  Level Estimated
Sat 04:44:00 PM 38.9590 30.4499 149° Southeast  Level Estimated
Sat 04:45:00 PM 38.8667 30.5217 149° Southeast  Level Estimated
Sat 04:46:00 PM 38.7744 30.5934 149° Southeast  Level Estimated
Sat 04:47:00 PM 38.6821 30.6648 149° Southeast  Level Estimated
Sat 04:48:00 PM 38.5897 30.7360 149° Southeast  Level Estimated
Sat 04:49:00 PM 38.4973 30.8071 149° Southeast  Level Estimated
Sat 04:50:00 PM 38.4048 30.8780 149° Southeast  Level Estimated
Sat 04:51:00 PM 38.3123 30.9487 149° Southeast  Level Estimated
Sat 04:51:19 PM 38.8091 30.3528 172° South 421 484 35,000  Level FlightAware ADS-B
Sat 04:51:48 PM 38.7510 30.3632 171° South 421 484 35,000 -102 Level FlightAware ADS-B
Sat 04:52:18 PM 38.6931 30.3735 172° South 420 483 34,900  Descending FlightAware ADS-B
Sat 04:52:48 PM 38.6345 30.3838 172° South 421 484 35,000 100 Climbing FlightAware ADS-B
Sat 04:53:18 PM 38.5763 30.3940 172° South 421 484 35,000  Level FlightAware ADS-B
Sat 04:54:13 PM 38.4716 30.4124 172° South 422 486 35,000  Level FlightAware ADS-B
Sat 04:54:43 PM 38.4121 30.4228 172° South 422 486 35,000  Level FlightAware ADS-B
Sat 04:55:13 PM 38.3538 30.4329 172° South 422 486 35,000  Level FlightAware ADS-B
Sat 04:55:43 PM 38.2973 30.4427 172° South 424 488 35,000  Level FlightAware ADS-B
Sat 04:56:13 PM 38.2380 30.4531 172° South 426 490 35,000  Level FlightAware ADS-B
Sat 04:56:43 PM 38.1783 30.4636 172° South 428 493 35,000  Level FlightAware ADS-B
Sat 04:57:13 PM 38.1194 30.4738 172° South 428 493 35,000  Level FlightAware ADS-B
Sat 04:57:43 PM 38.0597 30.4842 172° South 430 495 35,000  Level FlightAware ADS-B
Sat 04:58:13 PM 38.0022 30.4943 172° South 430 495 35,000  Level FlightAware ADS-B
Sat 04:58:43 PM 37.9426 30.5046 172° South 429 494 35,000  Level FlightAware ADS-B
Sat 04:59:38 PM 37.8332 30.5232 172° South 430 495 35,000  Level FlightAware ADS-B
Sat 05:00:08 PM 37.7740 30.5335 172° South 430 495 35,000  Level FlightAware ADS-B
Sat 05:00:38 PM 37.7168 30.5432 172° South 429 494 35,000  Level FlightAware ADS-B
Sat 05:01:08 PM 37.6560 30.5535 172° South 427 491 35,000  Level FlightAware ADS-B
Sat 05:01:38 PM 37.5971 30.5639 172° South 426 490 35,000  Level FlightAware ADS-B
Sat 05:02:08 PM 37.5421 30.5731 172° South 423 487 35,000  Level FlightAware ADS-B
Sat 05:02:38 PM 37.4810 30.5833 172° South 421 484 35,000  Level FlightAware ADS-B
Sat 05:03:08 PM 37.4235 30.5931 172° South 419 482 35,000  Level FlightAware ADS-B
Sat 05:03:38 PM 37.3643 30.6034 172° South 418 481 35,000  Level FlightAware ADS-B
Sat 05:04:09 PM 37.3076 30.6132 172° South 416 479 35,000  Level FlightAware ADS-B
Sat 05:04:38 PM 37.2520 30.6227 172° South 415 478 35,000  Level FlightAware ADS-B
Sat 05:05:08 PM 37.1948 30.6323 172° South 414 476 35,000  Level FlightAware ADS-B
Sat 05:05:38 PM 37.1377 30.6419 172° South 414 476 35,000  Level FlightAware ADS-B
Sat 05:06:08 PM 37.0813 30.6515 172° South 415 478 35,000  Level FlightAware ADS-B
Sat 05:06:39 PM 37.0222 30.6615 172° South 416 479 35,000  Level FlightAware ADS-B
Sat 05:07:08 PM 36.9663 30.6709 172° South 418 481 35,000  Level FlightAware ADS-B
Sat 05:07:38 PM 36.9067 30.6809 172° South 419 482 35,000  Level FlightAware ADS-B
Sat 05:08:09 PM 36.8488 30.6904 172° South 419 482 35,000  Level FlightAware ADS-B
Sat 05:08:38 PM 36.7938 30.6995 172° South 420 483 35,000  Level FlightAware ADS-B
Sat 05:09:08 PM 36.7338 30.7097 172° South 420 483 35,000  Level FlightAware ADS-B
Sat 05:09:38 PM 36.6750 30.7196 172° South 420 483 35,000  Level FlightAware ADS-B
Sat 05:10:09 PM 36.6177 30.7293 172° South 420 483 35,000  Level FlightAware ADS-B
Sat 05:10:38 PM 36.5608 30.7388 172° South 420 483 35,000  Level FlightAware ADS-B
Sat 05:11:08 PM 36.5019 30.7485 172° South 421 484 35,000  Level FlightAware ADS-B
Sat 05:11:38 PM 36.4462 30.7575 172° South 421 484 35,000  Level FlightAware ADS-B
Sat 05:12:08 PM 36.3851 30.7677 172° South 422 486 35,000  Level FlightAware ADS-B
Sat 05:12:37 PM 36.3303 30.7768 172° South 423 487 35,000  Level FlightAware ADS-B
Sat 05:13:08 PM 36.2710 30.7861 172° South 423 487 35,000  Level FlightAware ADS-B
Sat 05:13:38 PM 36.2104 30.7962 172° South 423 487 35,000  Level FlightAware ADS-B
Sat 05:14:09 PM 36.1526 30.8061 171° South 423 487 35,000  Level FlightAware ADS-B
Sat 05:14:53 PM 36.0647 30.8165 178° South 419 482 35,000  Level FlightAware ADS-B
Sat 05:15:48 PM 35.9648 30.8209 177° South 413 475 35,000  Level FlightAware ADS-B
Sat 05:16:18 PM 35.9023 30.8240 177° South 417 480 35,000  Level FlightAware ADS-B
Sat 05:16:48 PM 35.8434 30.8268 177° South 420 483 35,000  Level FlightAware ADS-B
Sat 05:17:18 PM 35.7855 30.8295 177° South 420 483 35,000  Level FlightAware ADS-B
Sat 05:17:49 PM 35.7287 30.8320 177° South 421 484 35,000  Level FlightAware ADS-B
Sat 05:18:18 PM 35.6689 30.8348 177° South 422 486 35,000  Level FlightAware ADS-B
Sat 05:18:48 PM 35.6105 30.8375 178° South 422 486 35,000  Level FlightAware ADS-B
Sat 05:19:18 PM 35.5533 30.8400 177° South 422 486 35,000  Level FlightAware ADS-B
Sat 05:19:48 PM 35.4985 30.8427 177° South 423 487 35,000  Level FlightAware ADS-B
Sat 05:20:18 PM 35.4361 30.8456 177° South 423 487 35,000  Level FlightAware ADS-B
Sat 05:20:49 PM 35.3747 30.8483 177° South 424 488 35,000  Level FlightAware ADS-B
Sat 05:21:18 PM 35.3159 30.8510 177° South 424 488 35,000  Level FlightAware ADS-B
Sat 05:21:48 PM 35.2608 30.8536 177° South 425 489 35,000  Level FlightAware ADS-B
Sat 05:22:00 PM 35.2460 30.8543 177° South 425 489 35,000  Level FlightAware ADS-B
Sat 05:23:03 PM 35.1120 30.8605 177° South 427 491 35,000  Level FlightAware ADS-B (HFA / LLHA)
Sat 05:23:33 PM 35.0519 30.8633 177° South 427 491 35,000  Level FlightAware ADS-B (HFA / LLHA)
Sat 05:24:04 PM 34.9908 30.8660 177° South 427 491 35,000  Level FlightAware ADS-B (HFA / LLHA)
Sat 05:24:31 PM 34.9388 30.8683 177° South 427 491 35,000  Level FlightAware ADS-B (HFA / LLHA)
Sat 05:24:56 PM 34.8875 30.8706 177° South 427 491 35,000  Level FlightAware ADS-B (HFA / LLHA)
Sat 05:25:15 PM 34.8512 30.8723 177° South 426 490 35,000  Level FlightAware ADS-B (HFA / LLHA)
Sat 05:25:59 PM 34.7657 30.8762 177° South 425 489 35,000  Level FlightAware ADS-B (HFA / LLHA)
Sat 05:29:49 PM 34.3305 30.8957 177° South 424 488 35,000  Level FlightAware ADS-B (HFA / LLHA)
Sat 05:30:18 PM 34.2583 30.8989 177° South 430 495 35,000  Level FlightAware ADS-B (HFA / LLHA)
Sat 05:30:48 PM 34.1962 30.9017 177° South 433 498 35,000  Level FlightAware ADS-B (HFA / LLHA)
Sat 05:31:18 PM 34.1320 30.9046 177° South 434 499 35,000 71 Level FlightAware ADS-B (HFA / LLHA)
Sat 05:32:13 PM 34.0222 30.9095 177° South 435 501 35,100 71 Climbing FlightAware ADS-B (HFA / LLHA)
Sat 05:32:43 PM 33.9623 30.9122 177° South 435 501 35,100 -98 Level FlightAware ADS-B (HFA / LLHA)
Sat 05:33:14 PM 33.8993 30.9151 177° South 435 501 35,000 -100 Descending FlightAware ADS-B (HFA / LLHA)
Sat 05:33:43 PM 33.8409 30.9176 177° South 435 501 35,000  Level FlightAware ADS-B (HFA / LLHA)
Sat 05:34:14 PM 33.7801 30.9202 177° South 434 499 35,000  Level FlightAware ADS-B (HFA / LLHA)
Sat 05:34:43 PM 33.7217 30.9228 177° South 434 499 35,000  Level FlightAware ADS-B (HFA / LLHA)
Sat 05:35:06 PM 33.6897 30.9242 177° South 434 499 35,000  Level FlightAware ADS-B (HFA / LLHA)
Sat 05:35:43 PM 33.6031 30.9280 177° South 433 498 35,000  Level FlightAware ADS-B (HFA / LLHA)
Sat 05:36:13 PM 33.5404 30.9307 177° South 433 498 35,000  Level FlightAware ADS-B (HFA / LLHA)
Sat 05:36:33 PM 33.5008 30.9325 177° South 432 497 35,000  Level FlightAware ADS-B (HFA / LLHA)
Sat 05:37:02 PM 33.4421 30.9351 177° South 431 496 35,000  Level FlightAware ADS-B (HFA / LLHA)
Sat 05:37:43 PM 33.3623 30.9387 177° South 431 496 35,000  Level FlightAware ADS-B (HFA / LLHA)
Sat 05:38:11 PM 33.3121 30.9409 177° South 431 496 35,000  Level FlightAware ADS-B (HFA / LLHA)
Sat 05:38:42 PM 33.2453 30.9438 177° South 430 495 35,000  Level FlightAware ADS-B (HFA / LLHA)
Sat 05:38:49 PM 33.2288 30.9445 177° South 430 495 35,000  Level FlightAware ADS-B (HFA / LLHA)
Sat 05:43:32 PM 32.6659 30.9985 177° South 430 495 35,000  Level FlightAware ADS-B (HFA / LLHA)
Sat 05:44:18 PM 32.5741 31.0088 174° South 425 489 35,000  Level FlightAware ADS-B (HFA / LLHA)
Sat 05:44:48 PM 32.5467 31.0118 174° South 424 488 35,000  Level FlightAware ADS-B (HFA / LLHA)
Sat 05:46:40 PM 32.3074 31.0383 174° South 421 484 35,000  Level FlightAware ADS-B (HFA / LLHA)
Sat 05:49:00 PM 32.1345 31.2544 133° Southeast  Level Estimated
Sat 05:50:00 PM 32.0603 31.3468 133° Southeast  Level Estimated
Sat 05:51:00 PM 31.9860 31.4390 134° Southeast  Level Estimated
Sat 05:52:00 PM 31.9117 31.5311 134° Southeast  Level Estimated
Sat 05:53:00 PM 31.8372 31.6230 134° Southeast  Level Estimated
Sat 05:54:00 PM 31.7628 31.7148 134° Southeast  Level Estimated
Sat 05:55:00 PM 31.6882 31.8064 134° Southeast  Level Estimated
Sat 05:56:00 PM 31.6136 31.8979 134° Southeast  Level Estimated
Sat 05:57:00 PM 31.5389 31.9892 134° Southeast  Level Estimated
Sat 05:58:00 PM 31.4641 32.0804 134° Southeast  Level Estimated
Sat 05:59:00 PM 31.3893 32.1715 134° Southeast  Level Estimated
Sat 06:00:00 PM 31.3145 32.2624 134° Southeast  Level Estimated
Sat 06:01:00 PM 31.2395 32.3531 134° Southeast  Level Estimated
Sat 06:02:00 PM 31.1645 32.4437 134° Southeast  Level Estimated
Sat 06:03:00 PM 31.0895 32.5342 134° Southeast  Level Estimated
Sat 06:04:00 PM 31.0143 32.6245 134° Southeast  Level Estimated
Sat 06:05:00 PM 30.9391 32.7147 134° Southeast  Level Estimated
Sat 06:06:00 PM 30.8639 32.8047 134° Southeast  Level Estimated
Sat 06:07:00 PM 30.7885 32.8946 134° Southeast  Level Estimated
Sat 06:08:00 PM 30.7132 32.9844 134° Southeast  Level Estimated
Sat 06:09:00 PM 30.6377 33.0740 134° Southeast  Level Estimated
Sat 06:10:00 PM 30.5622 33.1634 134° Southeast  Level Estimated
Sat 06:11:00 PM 30.4867 33.2528 134° Southeast  Level Estimated
Sat 06:12:00 PM 30.4110 33.3420 135° Southeast  Level Estimated
Sat 06:13:00 PM 30.3354 33.4310 135° Southeast  Level Estimated
Sat 06:14:00 PM 30.2596 33.5200 135° Southeast  Level Estimated
Sat 06:15:00 PM 30.1838 33.6087 135° Southeast  Level Estimated
Sat 06:16:00 PM 30.1079 33.6974 135° Southeast  Level Estimated
Sat 06:17:00 PM 30.0320 33.7859 135° Southeast  Level Estimated
Sat 06:18:00 PM 29.9560 33.8743 135° Southeast  Level Estimated
Sat 06:19:00 PM 29.8800 33.9625 135° Southeast  Level Estimated
Sat 06:20:00 PM 29.8039 34.0506 135° Southeast  Level Estimated
Sat 06:21:00 PM 29.7277 34.1386 135° Southeast  Level Estimated
Sat 06:22:00 PM 29.6515 34.2264 135° Southeast  Level Estimated
Sat 06:23:00 PM 29.5752 34.3141 135° Southeast  Level Estimated
Sat 06:24:00 PM 29.4989 34.4017 135° Southeast  Level Estimated
Sat 06:25:00 PM 29.4225 34.4892 135° Southeast  Level Estimated
Sat 06:26:00 PM 29.3461 34.5765 135° Southeast  Level Estimated
Sat 06:27:00 PM 29.2696 34.6636 135° Southeast  Level Estimated
Sat 06:28:00 PM 29.1930 34.7507 135° Southeast  Level Estimated
Sat 06:29:00 PM 29.1164 34.8376 135° Southeast  Level Estimated
Sat 06:30:00 PM 29.0397 34.9244 135° Southeast  Level Estimated
Sat 06:31:00 PM 28.9630 35.0111 135° Southeast  Level Estimated
Sat 06:32:00 PM 28.8862 35.0976 135° Southeast  Level Estimated
Sat 06:33:00 PM 28.8094 35.1840 135° Southeast  Level Estimated
Sat 06:34:00 PM 28.7325 35.2703 135° Southeast  Level Estimated
Sat 06:35:00 PM 28.6555 35.3564 135° Southeast  Level Estimated
Sat 06:36:00 PM 28.5785 35.4424 136° Southeast  Level Estimated
Sat 06:37:00 PM 28.5015 35.5283 136° Southeast  Level Estimated
Sat 06:38:00 PM 28.4244 35.6141 136° Southeast  Level Estimated
Sat 06:39:00 PM 28.3472 35.6997 136° Southeast  Level Estimated
Sat 06:40:00 PM 28.2700 35.7853 136° Southeast  Level Estimated
Sat 06:41:00 PM 28.1927 35.8707 136° Southeast  Level Estimated
Sat 06:42:00 PM 28.1154 35.9559 136° Southeast  Level Estimated
Sat 06:43:00 PM 28.0380 36.0411 136° Southeast  Level Estimated
Sat 06:44:00 PM 27.9606 36.1261 136° Southeast  Level Estimated
Sat 06:45:00 PM 27.8831 36.2110 136° Southeast  Level Estimated
Sat 06:46:00 PM 27.8055 36.2958 136° Southeast  Level Estimated
Sat 06:47:00 PM 27.7280 36.3805 136° Southeast  Level Estimated
Sat 06:48:00 PM 27.6503 36.4650 136° Southeast  Level Estimated
Sat 06:49:00 PM 27.5726 36.5494 136° Southeast  Level Estimated
Sat 06:50:00 PM 27.4949 36.6338 136° Southeast  Level Estimated
Sat 06:51:00 PM 27.4171 36.7179 136° Southeast  Level Estimated
Sat 06:52:00 PM 27.3393 36.8020 136° Southeast  Level Estimated
Sat 06:53:00 PM 27.2614 36.8860 136° Southeast  Level Estimated
Sat 06:54:00 PM 27.1834 36.9698 136° Southeast  Level Estimated
Sat 06:55:00 PM 27.1054 37.0535 136° Southeast  Level Estimated
Sat 06:56:00 PM 27.0274 37.1371 136° Southeast  Level Estimated
Sat 06:57:00 PM 26.9493 37.2206 136° Southeast  Level Estimated
Sat 06:58:00 PM 26.8712 37.3040 136° Southeast  Level Estimated
Sat 06:59:00 PM 26.7930 37.3872 136° Southeast  Level Estimated
Sat 07:00:00 PM 26.7148 37.4703 136° Southeast  Level Estimated
Sat 07:01:00 PM 26.6365 37.5534 137° Southeast  Level Estimated
Sat 07:02:00 PM 26.5581 37.6363 137° Southeast  Level Estimated
Sat 07:03:00 PM 26.4798 37.7191 137° Southeast  Level Estimated
Sat 07:04:00 PM 26.4013 37.8017 137° Southeast  Level Estimated
Sat 07:05:00 PM 26.3229 37.8843 137° Southeast  Level Estimated
Sat 07:06:00 PM 26.2443 37.9668 137° Southeast  Level Estimated
Sat 07:07:00 PM 26.1658 38.0491 137° Southeast  Level Estimated
Sat 07:08:00 PM 26.0872 38.1314 137° Southeast  Level Estimated
Sat 07:09:00 PM 26.0085 38.2135 137° Southeast  Level Estimated
Sat 07:10:00 PM 25.9298 38.2955 137° Southeast  Level Estimated
Sat 07:11:00 PM 25.8510 38.3774 137° Southeast  Level Estimated
Sat 07:12:00 PM 25.7722 38.4592 137° Southeast  Level Estimated
Sat 07:13:00 PM 25.6934 38.5409 137° Southeast  Level Estimated
Sat 07:14:00 PM 25.6145 38.6225 137° Southeast  Level Estimated
Sat 07:15:00 PM 25.5355 38.7039 137° Southeast  Level Estimated
Sat 07:16:00 PM 25.4566 38.7853 137° Southeast  Level Estimated
Sat 07:17:00 PM 25.3775 38.8666 137° Southeast  Level Estimated
Sat 07:18:00 PM 25.2985 38.9477 137° Southeast  Level Estimated
Sat 07:19:00 PM 25.2194 39.0288 137° Southeast  Level Estimated
Sat 07:20:00 PM 25.1402 39.1097 137° Southeast  Level Estimated
Sat 07:21:00 PM 25.0610 39.1905 137° Southeast  Level Estimated
Sat 07:22:00 PM 24.9817 39.2713 137° Southeast  Level Estimated
Sat 07:23:00 PM 24.9025 39.3519 137° Southeast  Level Estimated
Sat 07:24:00 PM 24.8231 39.4324 137° Southeast  Level Estimated
Sat 07:25:00 PM 24.7437 39.5128 137° Southeast  Level Estimated
Sat 07:26:00 PM 24.6643 39.5932 137° Southeast  Level Estimated
Sat 07:27:00 PM 24.5849 39.6734 137° Southeast  Level Estimated
Sat 07:28:00 PM 24.5534 39.7051 137° Southeast  Level Estimated
Sat 07:29:00 PM 24.5534 39.7051 North  Level Estimated
Sat 07:30:00 PM 24.5534 39.7051 North  Level Estimated
Sat 07:31:00 PM 24.5534 39.7051 North  Level Estimated
Sat 07:32:00 PM 24.5534 39.7051 North  Level Estimated

Login

Don't have an account? Register now (free) for customized features, flight alerts, and more!